createdAt,value
2018-04-08T00:00:16.032Z,13.40
2018-04-08T00:02:44.233Z,13.40
2018-04-08T00:05:12.391Z,13.30
2018-04-08T00:07:40.930Z,13.40
2018-04-08T00:10:09.124Z,13.40
2018-04-08T00:12:40.302Z,13.40
2018-04-08T00:15:08.468Z,13.30
2018-04-08T00:17:36.685Z,13.30
2018-04-08T00:20:04.885Z,13.20
2018-04-08T00:22:33.069Z,13.10
2018-04-08T00:25:01.340Z,13.10
2018-04-08T00:27:29.486Z,13.00
2018-04-08T00:29:58.462Z,12.80
2018-04-08T00:32:26.738Z,12.70
2018-04-08T00:34:56.114Z,12.70
2018-04-08T00:37:24.285Z,12.70
2018-04-08T00:39:52.494Z,12.70
2018-04-08T00:42:20.688Z,12.70
2018-04-08T00:44:49.622Z,12.50
2018-04-08T00:47:17.914Z,12.50
2018-04-08T00:49:46.092Z,12.60
2018-04-08T00:52:14.260Z,12.50
2018-04-08T00:54:42.460Z,12.30
2018-04-08T00:57:10.591Z,12.30
2018-04-08T00:59:38.748Z,12.30
2018-04-08T01:02:06.916Z,12.20
2018-04-08T01:04:35.889Z,12.20
2018-04-08T01:07:04.057Z,12.20
2018-04-08T01:09:32.204Z,12.10
2018-04-08T01:12:00.325Z,12.00
2018-04-08T01:14:28.556Z,11.80
2018-04-08T01:16:56.696Z,11.70
2018-04-08T01:19:25.617Z,11.50
2018-04-08T01:21:53.996Z,11.50
2018-04-08T01:24:22.172Z,11.30
2018-04-08T01:26:50.357Z,11.40
2018-04-08T01:29:18.671Z,11.50
2018-04-08T01:31:46.835Z,11.50
2018-04-08T01:34:14.980Z,11.50
2018-04-08T01:36:43.211Z,11.30
2018-04-08T01:39:11.365Z,11.20
2018-04-08T01:41:39.569Z,11.10
2018-04-08T01:44:08.500Z,10.90
2018-04-08T01:46:36.656Z,10.90
2018-04-08T01:49:04.831Z,10.90
2018-04-08T01:51:33.800Z,10.90
2018-04-08T01:54:01.985Z,10.90
2018-04-08T01:56:30.127Z,11.00
2018-04-08T01:58:58.266Z,10.90
2018-04-08T02:01:26.436Z,11.00
2018-04-08T02:03:54.583Z,10.90
2018-04-08T02:06:22.739Z,10.80
2018-04-08T02:08:50.914Z,10.70
2018-04-08T02:11:19.145Z,10.60
2018-04-08T02:13:47.377Z,10.60
2018-04-08T02:16:15.576Z,10.60
2018-04-08T02:18:44.494Z,10.70
2018-04-08T02:21:12.664Z,10.70
2018-04-08T02:23:41.638Z,10.70
2018-04-08T02:26:09.789Z,10.70
2018-04-08T02:28:37.954Z,10.50
2018-04-08T02:31:06.194Z,10.50
2018-04-08T02:33:34.317Z,10.40
2018-04-08T02:36:02.471Z,10.30
2018-04-08T02:38:30.611Z,10.30
2018-04-08T02:40:59.515Z,10.30
2018-04-08T02:43:27.687Z,10.30
2018-04-08T02:45:55.958Z,10.30
2018-04-08T02:48:24.132Z,10.30
2018-04-08T02:50:53.135Z,10.10
2018-04-08T02:53:21.350Z,10.10
2018-04-08T02:55:49.574Z,10.00
2018-04-08T02:58:17.708Z,9.90
2018-04-08T03:00:45.881Z,10.00
2018-04-08T03:03:14.031Z,10.10
2018-04-08T03:05:42.330Z,10.10
2018-04-08T03:08:10.523Z,10.20
2018-04-08T03:10:38.694Z,10.20
2018-04-08T03:13:06.948Z,10.20
2018-04-08T03:15:35.104Z,10.00
2018-04-08T03:18:03.276Z,10.00
2018-04-08T03:20:32.220Z,10.00
2018-04-08T03:23:00.395Z,10.00
2018-04-08T03:25:28.657Z,9.90
2018-04-08T03:27:56.870Z,9.90
2018-04-08T03:30:25.026Z,9.90
2018-04-08T03:32:53.162Z,9.80
2018-04-08T03:35:21.325Z,9.90
2018-04-08T03:37:49.639Z,9.90
2018-04-08T03:40:17.898Z,9.90
2018-04-08T03:42:46.063Z,10.00
2018-04-08T03:45:15.054Z,9.90
2018-04-08T03:47:43.974Z,9.80
2018-04-08T03:50:12.251Z,9.80
2018-04-08T03:52:40.411Z,9.70
2018-04-08T03:55:09.327Z,9.70
2018-04-08T03:57:37.488Z,9.70
2018-04-08T04:00:05.625Z,9.70
2018-04-08T04:02:33.822Z,9.70
2018-04-08T04:05:02.770Z,9.40
2018-04-08T04:07:30.904Z,9.40
2018-04-08T04:09:59.055Z,9.40
2018-04-08T04:12:27.224Z,9.30
2018-04-08T04:14:55.376Z,9.20
2018-04-08T04:17:23.523Z,9.20
2018-04-08T04:20:03.514Z,9.20
2018-04-08T04:22:43.390Z,9.30
2018-04-08T04:25:25.135Z,9.30
2018-04-08T04:27:53.320Z,9.30
2018-04-08T04:30:21.476Z,9.20
2018-04-08T04:32:49.641Z,9.30
2018-04-08T04:35:17.787Z,9.30
2018-04-08T04:37:45.954Z,9.40
2018-04-08T04:40:14.099Z,9.40
2018-04-08T04:42:42.266Z,9.20
2018-04-08T04:45:10.408Z,9.10
2018-04-08T04:47:38.612Z,9.00
2018-04-08T04:50:06.769Z,9.00
2018-04-08T04:52:35.678Z,9.10
2018-04-08T04:55:03.825Z,9.10
2018-04-08T04:57:32.773Z,9.20
2018-04-08T05:00:01.101Z,9.20
2018-04-08T05:02:31.067Z,9.00
2018-04-08T05:04:59.199Z,9.00
2018-04-08T05:07:27.391Z,9.00
2018-04-08T05:09:55.536Z,9.10
2018-04-08T05:12:23.928Z,9.10
2018-04-08T05:14:52.833Z,9.10
2018-04-08T05:17:21.001Z,9.10
2018-04-08T05:19:49.146Z,9.10
2018-04-08T05:22:17.444Z,9.10
2018-04-08T05:24:45.674Z,9.20
2018-04-08T05:27:14.094Z,9.30
2018-04-08T05:29:44.072Z,9.30
2018-04-08T05:32:12.227Z,9.20
2018-04-08T05:34:40.370Z,9.10
2018-04-08T05:37:08.576Z,9.10
2018-04-08T05:39:36.716Z,9.00
2018-04-08T05:42:04.871Z,9.10
2018-04-08T05:44:33.036Z,9.20
2018-04-08T05:47:01.215Z,9.20
2018-04-08T05:49:29.382Z,9.20
2018-04-08T05:51:57.537Z,9.20
2018-04-08T05:54:25.716Z,9.30
2018-04-08T05:56:53.850Z,9.40
2018-04-08T05:59:22.951Z,9.60
2018-04-08T06:01:51.887Z,9.70
2018-04-08T06:04:20.081Z,9.70
2018-04-08T06:06:48.220Z,9.70
2018-04-08T06:09:16.372Z,9.70
2018-04-08T06:11:45.598Z,9.70
2018-04-08T06:14:13.773Z,9.70
2018-04-08T06:16:42.660Z,9.80
2018-04-08T06:19:11.594Z,10.10
2018-04-08T06:21:39.747Z,10.00
2018-04-08T06:24:07.902Z,10.20
2018-04-08T06:26:36.038Z,10.30
2018-04-08T06:29:04.244Z,10.30
2018-04-08T06:31:32.402Z,10.30
2018-04-08T06:34:00.582Z,10.40
2018-04-08T06:36:28.708Z,10.40
2018-04-08T06:38:56.898Z,10.50
2018-04-08T06:41:25.058Z,10.60
2018-04-08T06:43:53.220Z,10.60
2018-04-08T06:46:22.133Z,10.70
2018-04-08T06:48:50.313Z,10.60
2018-04-08T06:51:18.455Z,10.70
2018-04-08T06:53:47.427Z,10.90
2018-04-08T06:56:15.582Z,10.90
2018-04-08T06:58:43.718Z,11.00
2018-04-08T07:01:11.851Z,11.10
2018-04-08T07:03:40.034Z,11.10
2018-04-08T07:06:08.173Z,11.30
2018-04-08T07:08:36.396Z,11.40
2018-04-08T07:11:04.547Z,11.50
2018-04-08T07:13:32.924Z,11.60
2018-04-08T07:16:01.076Z,11.70
2018-04-08T07:18:29.302Z,11.80
2018-04-08T07:20:57.569Z,11.90
2018-04-08T07:23:25.771Z,12.00
2018-04-08T07:25:54.695Z,12.20
2018-04-08T07:28:22.846Z,12.20
2018-04-08T07:30:51.023Z,12.30
2018-04-08T07:33:19.181Z,12.40
2018-04-08T07:35:48.094Z,12.60
2018-04-08T07:38:17.018Z,12.70
2018-04-08T07:40:45.278Z,12.70
2018-04-08T07:43:13.507Z,12.80
2018-04-08T07:45:41.668Z,12.90
2018-04-08T07:48:09.799Z,13.10
2018-04-08T07:50:37.956Z,13.20
2018-04-08T07:53:06.310Z,13.30
2018-04-08T07:55:34.451Z,13.40
2018-04-08T08:00:57.490Z,13.60
2018-04-08T08:03:25.620Z,13.70
2018-04-08T08:05:54.314Z,13.90
2018-04-08T08:08:23.006Z,14.10
2018-04-08T08:10:52.883Z,14.30
2018-04-08T08:28:21.848Z,15.20
2018-04-08T08:40:31.573Z,15.90
2018-04-08T08:43:05.648Z,15.90
2018-04-08T08:45:37.019Z,16.00
2018-04-08T09:09:59.755Z,17.40
2018-04-08T09:15:29.111Z,17.60
2018-04-08T09:17:57.986Z,17.70
2018-04-08T09:20:26.843Z,17.70
2018-04-08T09:23:00.522Z,17.90
2018-04-08T09:25:43.481Z,18.00
2018-04-08T09:28:11.571Z,18.20
2018-04-08T09:30:39.655Z,19.20
2018-04-08T09:33:08.692Z,24.90
2018-04-08T09:35:36.760Z,24.80
2018-04-08T09:38:05.548Z,27.60
2018-04-08T09:40:33.726Z,29.70
2018-04-08T09:43:04.244Z,33.60
2018-04-08T09:45:35.509Z,33.40
2018-04-08T09:48:04.077Z,35.50
2018-04-08T09:50:35.743Z,36.10
2018-04-08T09:53:04.063Z,36.90
2018-04-08T09:55:32.372Z,38.00
2018-04-08T10:01:04.465Z,36.70
2018-04-08T10:03:38.201Z,37.60
2018-04-08T10:06:06.269Z,37.00
2018-04-08T10:08:34.333Z,35.70
2018-04-08T10:11:02.397Z,35.90
2018-04-08T10:13:30.491Z,36.00
2018-04-08T10:15:58.565Z,32.70
2018-04-08T10:18:26.648Z,30.80
2018-04-08T10:20:54.768Z,30.20
2018-04-08T10:23:22.855Z,28.30
2018-04-08T10:25:50.918Z,27.10
2018-04-08T10:28:18.976Z,27.30
2018-04-08T10:30:47.250Z,27.40
2018-04-08T10:33:15.425Z,26.40
2018-04-08T10:35:43.515Z,25.90
2018-04-08T10:38:11.761Z,25.30
2018-04-08T10:40:39.828Z,25.10
2018-04-08T10:43:09.034Z,24.80
2018-04-08T10:45:37.135Z,24.90
2018-04-08T10:48:06.142Z,24.90
2018-04-08T10:50:34.282Z,24.80
2018-04-08T10:53:02.792Z,25.10
2018-04-08T10:55:31.510Z,24.80
2018-04-08T10:57:59.611Z,24.50
2018-04-08T11:00:27.687Z,24.30
2018-04-08T11:02:55.767Z,24.40
2018-04-08T11:05:24.105Z,24.40
2018-04-08T11:07:56.869Z,24.30
2018-04-08T11:10:25.007Z,24.20
2018-04-08T11:12:57.726Z,24.00
2018-04-08T11:15:27.112Z,24.30
2018-04-08T11:17:56.046Z,24.20
2018-04-08T11:20:24.332Z,24.30
2018-04-08T11:22:52.491Z,24.10
2018-04-08T11:25:20.667Z,24.40
2018-04-08T11:27:48.752Z,24.30
2018-04-08T11:30:16.854Z,24.50
2018-04-08T11:32:44.924Z,24.40
2018-04-08T11:35:25.170Z,24.40
2018-04-08T11:37:53.457Z,24.80
2018-04-08T11:40:21.536Z,24.50
2018-04-08T11:42:49.601Z,24.50
2018-04-08T11:45:17.858Z,24.70
2018-04-08T11:47:45.952Z,24.90
2018-04-08T11:50:14.004Z,24.80
2018-04-08T11:52:42.164Z,24.90
2018-04-08T11:55:10.702Z,24.90
2018-04-08T11:57:38.798Z,25.10
2018-04-08T12:00:06.954Z,25.40
2018-04-08T12:02:36.175Z,25.50
2018-04-08T12:05:04.989Z,25.90
2018-04-08T12:07:33.093Z,25.80
2018-04-08T12:10:01.168Z,26.00
2018-04-08T12:12:29.244Z,25.60
2018-04-08T12:14:57.323Z,25.40
2018-04-08T12:17:25.397Z,25.40
2018-04-08T12:19:53.457Z,25.50
2018-04-08T12:22:21.541Z,25.90
2018-04-08T12:24:50.480Z,25.90
2018-04-08T12:27:18.570Z,25.90
2018-04-08T12:32:40.591Z,25.80
2018-04-08T12:35:08.705Z,26.00
2018-04-08T12:37:36.770Z,25.80
2018-04-08T12:40:04.855Z,26.00
2018-04-08T12:42:32.939Z,25.70
2018-04-08T12:45:01.761Z,25.90
2018-04-08T12:47:29.856Z,25.90
2018-04-08T12:49:57.908Z,25.80
2018-04-08T12:52:26.098Z,25.90
2018-04-08T12:54:54.164Z,25.90
2018-04-08T12:57:22.265Z,26.20
2018-04-08T12:59:50.300Z,26.10
2018-04-08T13:02:18.393Z,26.20
2018-04-08T13:04:46.473Z,26.50
2018-04-08T13:07:14.546Z,26.90
2018-04-08T13:09:42.620Z,27.30
2018-04-08T13:12:10.694Z,27.20
2018-04-08T13:14:38.888Z,26.80
2018-04-08T13:17:07.730Z,26.90
2018-04-08T13:19:35.807Z,26.80
2018-04-08T13:22:03.925Z,27.20
2018-04-08T13:24:31.944Z,27.20
2018-04-08T13:27:00.168Z,27.30
2018-04-08T13:32:20.837Z,27.70
2018-04-08T13:34:48.912Z,27.70
2018-04-08T13:37:17.004Z,27.40
2018-04-08T13:39:45.080Z,27.70
2018-04-08T13:42:13.161Z,27.90
2018-04-08T13:44:41.994Z,27.90
2018-04-08T13:47:10.066Z,27.80
2018-04-08T13:49:38.166Z,28.00
2018-04-08T13:52:06.237Z,27.70
2018-04-08T13:54:34.318Z,27.90
2018-04-08T13:57:02.389Z,27.60
2018-04-08T13:59:30.455Z,27.20
2018-04-08T14:01:58.531Z,27.20
2018-04-08T14:04:26.600Z,27.50
2018-04-08T14:06:54.647Z,27.30
2018-04-08T14:09:23.843Z,27.60
2018-04-08T14:11:51.900Z,27.50
2018-04-08T14:14:20.004Z,27.80
2018-04-08T14:16:48.030Z,27.90
2018-04-08T14:19:16.090Z,28.10
2018-04-08T14:21:44.160Z,28.00
2018-04-08T14:24:12.229Z,27.90
2018-04-08T14:26:40.292Z,27.70
2018-04-08T14:29:09.120Z,27.80
2018-04-08T14:31:37.180Z,27.70
2018-04-08T14:34:05.241Z,27.60
2018-04-08T14:36:33.289Z,27.60
2018-04-08T14:39:02.211Z,27.90
2018-04-08T14:41:30.276Z,27.80
2018-04-08T14:43:59.292Z,28.00
2018-04-08T14:46:29.689Z,28.00
2018-04-08T14:48:57.721Z,27.90
2018-04-08T14:51:25.781Z,28.10
2018-04-08T14:53:53.847Z,28.10
2018-04-08T14:56:21.904Z,28.30
2018-04-08T14:58:49.970Z,28.40
2018-04-08T15:01:18.032Z,27.80
2018-04-08T15:03:46.135Z,28.00
2018-04-08T15:06:14.197Z,28.00
2018-04-08T15:08:42.495Z,28.10
2018-04-08T15:11:10.553Z,28.10
2018-04-08T15:13:38.710Z,28.00
2018-04-08T15:16:06.724Z,28.00
2018-04-08T15:18:35.549Z,28.10
2018-04-08T15:21:03.615Z,28.10
2018-04-08T15:23:31.674Z,28.00
2018-04-08T15:25:59.764Z,27.90
2018-04-08T15:28:27.823Z,27.70
2018-04-08T15:30:56.454Z,27.70
2018-04-08T15:33:24.505Z,27.60
2018-04-08T15:35:54.793Z,27.40
2018-04-08T15:38:22.867Z,27.40
2018-04-08T15:40:50.918Z,27.30
2018-04-08T15:43:19.728Z,27.30
2018-04-08T15:45:47.807Z,27.30
2018-04-08T15:48:16.005Z,27.20
2018-04-08T15:50:44.101Z,26.70
2018-04-08T15:53:12.120Z,26.60
2018-04-08T15:55:40.182Z,26.60
2018-04-08T15:58:08.262Z,26.60
2018-04-08T16:00:36.319Z,26.40
2018-04-08T16:03:04.374Z,26.40
2018-04-08T16:05:33.368Z,26.20
2018-04-08T16:08:02.196Z,26.00
2018-04-08T16:10:30.316Z,26.00
2018-04-08T16:12:59.076Z,25.80
2018-04-08T16:15:27.217Z,25.60
2018-04-08T16:17:55.206Z,25.40
2018-04-08T16:20:23.274Z,25.30
2018-04-08T16:22:51.742Z,25.30
2018-04-08T16:25:19.786Z,25.20
2018-04-08T16:27:48.627Z,24.90
2018-04-08T16:30:16.675Z,24.90
2018-04-08T16:32:44.735Z,24.80
2018-04-08T16:35:12.793Z,24.70
2018-04-08T16:37:40.857Z,24.40
2018-04-08T16:40:09.697Z,24.40
2018-04-08T16:42:38.017Z,24.40
2018-04-08T16:45:06.087Z,24.30
2018-04-08T16:47:34.906Z,24.10
2018-04-08T16:50:03.110Z,24.10
2018-04-08T16:52:32.056Z,24.00
2018-04-08T16:55:00.895Z,23.70
2018-04-08T16:57:28.944Z,23.70
2018-04-08T16:59:57.024Z,23.60
2018-04-08T17:02:25.112Z,23.50
2018-04-08T17:04:53.163Z,23.40
2018-04-08T17:07:21.235Z,23.20
2018-04-08T17:09:49.300Z,23.10
2018-04-08T17:12:17.355Z,22.90
2018-04-08T17:14:45.428Z,22.80
2018-04-08T17:17:13.495Z,22.60
2018-04-08T17:19:41.552Z,22.50
2018-04-08T17:22:09.610Z,22.30
2018-04-08T17:24:37.652Z,22.10
2018-04-08T17:27:05.711Z,22.00
2018-04-08T17:29:34.778Z,21.90
2018-04-08T17:32:02.851Z,21.80
2018-04-08T17:34:30.935Z,21.70
2018-04-08T17:36:58.992Z,21.60
2018-04-08T17:39:27.052Z,21.50
2018-04-08T17:41:55.118Z,21.40
2018-04-08T17:44:23.181Z,21.40
2018-04-08T17:46:52.027Z,21.10
2018-04-08T17:49:20.122Z,21.10
2018-04-08T17:51:48.274Z,21.00
2018-04-08T17:54:16.367Z,20.90
2018-04-08T17:56:44.488Z,20.70
2018-04-08T17:59:12.553Z,20.60
2018-04-08T18:01:40.630Z,20.50
2018-04-08T18:04:08.691Z,20.30
2018-04-08T18:06:36.747Z,20.10
2018-04-08T18:09:05.631Z,20.00
2018-04-08T18:11:34.474Z,19.80
2018-04-08T18:14:02.523Z,19.80
2018-04-08T18:16:30.596Z,19.70
2018-04-08T18:18:58.790Z,19.60
2018-04-08T18:21:26.871Z,19.50
2018-04-08T18:23:54.948Z,19.40
2018-04-08T18:26:23.020Z,19.40
2018-04-08T18:28:51.094Z,19.40
2018-04-08T18:31:19.163Z,19.40
2018-04-08T18:33:47.208Z,19.40
2018-04-08T18:36:15.284Z,19.50
2018-04-08T18:38:43.442Z,19.50
2018-04-08T18:41:12.541Z,19.40
2018-04-08T18:43:40.597Z,19.30
2018-04-08T18:46:08.836Z,19.30
2018-04-08T18:48:37.668Z,19.30
2018-04-08T18:51:05.727Z,19.30
2018-04-08T18:53:33.778Z,19.20
2018-04-08T18:56:02.614Z,19.20
2018-04-08T18:58:30.765Z,19.20
2018-04-08T19:00:58.850Z,19.20
2018-04-08T19:03:27.671Z,19.30
2018-04-08T19:05:55.731Z,19.30
2018-04-08T19:08:23.810Z,19.20
2018-04-08T19:10:51.886Z,19.30
2018-04-08T19:13:19.954Z,19.20
2018-04-08T19:15:48.016Z,19.30
2018-04-08T19:18:16.075Z,19.20
2018-04-08T19:20:44.940Z,19.10
2018-04-08T19:23:13.024Z,19.10
2018-04-08T19:25:41.846Z,19.10
2018-04-08T19:28:09.935Z,19.10
2018-04-08T19:30:37.988Z,19.10
2018-04-08T19:33:06.069Z,19.00
2018-04-08T19:35:34.154Z,19.00
2018-04-08T19:38:02.997Z,18.90
2018-04-08T19:40:31.087Z,18.90
2018-04-08T19:42:59.149Z,18.90
2018-04-08T19:45:27.216Z,18.80
2018-04-08T19:47:55.296Z,18.80
2018-04-08T19:50:23.370Z,18.70
2018-04-08T19:52:51.442Z,18.70
2018-04-08T19:55:19.499Z,18.70
2018-04-08T19:57:47.564Z,18.70
2018-04-08T20:00:15.630Z,18.60
2018-04-08T20:02:43.794Z,18.60
2018-04-08T20:05:11.858Z,18.50
2018-04-08T20:07:39.935Z,18.50
2018-04-08T20:10:08.018Z,18.50
2018-04-08T20:12:36.093Z,18.50
2018-04-08T20:15:04.142Z,18.40
2018-04-08T20:17:32.234Z,18.40
2018-04-08T20:20:00.280Z,18.40
2018-04-08T20:22:28.648Z,18.30
2018-04-08T20:24:56.688Z,18.30
2018-04-08T20:27:24.891Z,18.30
2018-04-08T20:29:52.928Z,18.30
2018-04-08T20:32:21.000Z,18.20
2018-04-08T20:34:49.055Z,18.20
2018-04-08T20:37:17.120Z,18.20
2018-04-08T20:39:45.184Z,18.20
2018-04-08T20:42:13.259Z,18.10
2018-04-08T20:44:41.315Z,18.10
2018-04-08T20:47:10.195Z,17.90
2018-04-08T20:49:38.268Z,17.90
2018-04-08T20:52:06.341Z,17.80
2018-04-08T20:54:34.407Z,17.80
2018-04-08T20:57:02.518Z,17.70
2018-04-08T20:59:30.603Z,17.70
2018-04-08T21:01:58.776Z,17.70
2018-04-08T21:04:26.878Z,17.70
2018-04-08T21:06:56.323Z,17.70
2018-04-08T21:09:24.391Z,17.60
2018-04-08T21:11:52.583Z,17.60
2018-04-08T21:14:20.639Z,17.60
2018-04-08T21:16:49.269Z,17.60
2018-04-08T21:19:18.961Z,17.60
2018-04-08T21:21:47.042Z,17.60
2018-04-08T21:24:15.102Z,17.60
2018-04-08T21:26:44.168Z,17.60
2018-04-08T21:29:13.155Z,17.60
2018-04-08T21:31:41.218Z,17.60
2018-04-08T21:34:09.284Z,17.60
2018-04-08T21:36:37.372Z,17.60
2018-04-08T21:39:05.429Z,17.60
2018-04-08T21:41:34.372Z,17.50
2018-04-08T21:44:02.428Z,17.60
2018-04-08T21:46:30.492Z,17.60
2018-04-08T21:48:59.096Z,17.50
2018-04-08T21:51:27.994Z,17.50
2018-04-08T21:53:56.457Z,17.50
2018-04-08T21:56:25.044Z,17.50
2018-04-08T21:58:53.139Z,17.40
2018-04-08T22:01:21.162Z,17.50
2018-04-08T22:03:49.227Z,17.40
2018-04-08T22:06:17.282Z,17.40
2018-04-08T22:08:45.337Z,17.40
2018-04-08T22:11:13.386Z,17.40
2018-04-08T22:13:42.251Z,17.40
2018-04-08T22:16:10.377Z,17.30
2018-04-08T22:18:38.449Z,17.40
2018-04-08T22:21:06.495Z,17.30
2018-04-08T22:23:35.318Z,17.30
2018-04-08T22:26:03.389Z,17.20
2018-04-08T22:28:31.449Z,17.30
2018-04-08T22:30:59.508Z,17.30
2018-04-08T22:33:27.577Z,17.30
2018-04-08T22:35:56.606Z,17.30
2018-04-08T22:38:24.684Z,17.30
2018-04-08T22:40:52.912Z,17.30
2018-04-08T22:43:21.728Z,17.10
2018-04-08T22:45:49.792Z,17.10
2018-04-08T22:48:18.867Z,17.10
2018-04-08T22:50:47.683Z,17.00
2018-04-08T22:53:15.743Z,16.90
2018-04-08T22:55:43.811Z,17.10
2018-04-08T22:58:11.862Z,17.00
2018-04-08T23:00:39.929Z,17.00
2018-04-08T23:03:07.995Z,17.00
2018-04-08T23:05:36.052Z,16.90
2018-04-08T23:08:04.118Z,16.80
2018-04-08T23:10:32.163Z,16.90
2018-04-08T23:13:00.228Z,16.80
2018-04-08T23:15:28.282Z,16.70
2018-04-08T23:17:56.338Z,16.60
2018-04-08T23:20:24.412Z,16.50
2018-04-08T23:22:53.235Z,16.40
2018-04-08T23:25:21.291Z,16.40
2018-04-08T23:27:49.352Z,16.40
2018-04-08T23:30:17.430Z,16.20
2018-04-08T23:32:45.496Z,16.10
2018-04-08T23:35:13.569Z,16.00
2018-04-08T23:37:41.636Z,15.90
2018-04-08T23:40:09.710Z,15.70
2018-04-08T23:42:37.780Z,15.70
2018-04-08T23:45:05.856Z,15.60
2018-04-08T23:47:33.929Z,15.60
2018-04-08T23:50:01.997Z,15.60
2018-04-08T23:52:30.073Z,15.60
2018-04-08T23:54:58.123Z,15.60
2018-04-08T23:57:26.175Z,15.70
2018-04-08T23:59:55.010Z,15.80
